createdAt,value
2023-04-10T00:00:03.553Z,986.87
2023-04-10T00:01:03.409Z,986.92
2023-04-10T00:02:03.583Z,986.92
2023-04-10T00:03:04.218Z,987.04
2023-04-10T00:04:03.842Z,986.87
2023-04-10T00:05:03.780Z,987.01
2023-04-10T00:06:03.601Z,987.01
2023-04-10T00:07:03.558Z,987.04
2023-04-10T00:08:03.539Z,986.84
2023-04-10T00:09:03.619Z,986.93
2023-04-10T00:10:03.991Z,986.90
2023-04-10T00:11:03.434Z,986.93
2023-04-10T00:12:03.524Z,986.82
2023-04-10T00:13:03.471Z,986.85
2023-04-10T00:14:03.511Z,986.93
2023-04-10T00:15:03.546Z,986.90
2023-04-10T00:16:03.724Z,986.85
2023-04-10T00:17:03.701Z,986.79
2023-04-10T00:18:03.946Z,986.76
2023-04-10T00:19:03.830Z,986.93
2023-04-10T00:20:03.718Z,986.88
2023-04-10T00:21:03.725Z,986.82
2023-04-10T00:22:03.816Z,986.85
2023-04-10T00:23:03.836Z,986.82
2023-04-10T00:24:03.907Z,986.77
2023-04-10T00:25:02.960Z,986.96
2023-04-10T00:26:02.969Z,986.74
2023-04-10T00:27:02.992Z,986.77
2023-04-10T00:28:03.022Z,986.63
2023-04-10T00:29:02.993Z,986.55
2023-04-10T00:30:03.064Z,986.63
2023-04-10T00:31:03.554Z,986.50
2023-04-10T00:32:03.604Z,986.55
2023-04-10T00:33:03.576Z,986.50
2023-04-10T00:34:03.563Z,986.66
2023-04-10T00:35:03.729Z,986.57
2023-04-10T00:36:03.784Z,986.57
2023-04-10T00:37:03.598Z,986.47
2023-04-10T00:38:03.627Z,986.56
2023-04-10T00:39:03.629Z,986.36
2023-04-10T00:40:03.657Z,986.53
2023-04-10T00:41:03.564Z,986.58
2023-04-10T00:42:03.733Z,986.39
2023-04-10T00:43:03.740Z,986.47
2023-04-10T00:44:03.654Z,986.47
2023-04-10T00:45:03.729Z,986.36
2023-04-10T00:46:03.836Z,986.33
2023-04-10T00:47:03.883Z,986.36
2023-04-10T00:48:03.889Z,986.30
2023-04-10T00:49:03.762Z,986.42
2023-04-10T00:50:03.747Z,986.31
2023-04-10T00:51:03.824Z,986.47
2023-04-10T00:52:03.896Z,986.33
2023-04-10T00:53:03.868Z,986.28
2023-04-10T00:54:03.852Z,986.45
2023-04-10T00:55:02.964Z,986.28
2023-04-10T00:56:02.916Z,986.28
2023-04-10T00:57:03.027Z,986.22
2023-04-10T00:58:03.688Z,986.28
2023-04-10T00:59:07.241Z,986.31
2023-04-10T01:00:03.733Z,986.22
2023-04-10T01:01:03.714Z,986.23
2023-04-10T01:02:04.474Z,986.42
2023-04-10T01:03:04.128Z,986.25
2023-04-10T01:04:04.197Z,986.40
2023-04-10T01:05:03.971Z,986.37
2023-04-10T01:06:03.945Z,986.37
2023-04-10T01:07:03.858Z,986.40
2023-04-10T01:08:03.816Z,986.14
2023-04-10T01:09:03.853Z,986.20
2023-04-10T01:10:02.958Z,986.26
2023-04-10T01:11:02.945Z,986.31
2023-04-10T01:12:02.889Z,986.06
2023-04-10T01:13:03.011Z,986.20
2023-04-10T01:14:03.137Z,986.26
2023-04-10T01:15:03.191Z,986.31
2023-04-10T01:16:03.325Z,986.40
2023-04-10T01:17:03.448Z,986.32
2023-04-10T01:18:03.359Z,986.46
2023-04-10T01:19:03.273Z,986.43
2023-04-10T01:20:03.278Z,986.56
2023-04-10T01:21:03.265Z,986.32
2023-04-10T01:22:03.230Z,986.29
2023-04-10T01:23:03.218Z,986.46
2023-04-10T01:24:03.215Z,986.46
2023-04-10T01:25:03.251Z,986.46
2023-04-10T01:26:03.210Z,986.38
2023-04-10T01:27:03.238Z,986.40
2023-04-10T01:28:03.155Z,986.40
2023-04-10T01:29:03.255Z,986.26
2023-04-10T01:30:03.312Z,986.46
2023-04-10T01:31:03.567Z,986.37
2023-04-10T01:32:03.344Z,986.29
2023-04-10T01:33:03.515Z,986.29
2023-04-10T01:34:03.491Z,986.32
2023-04-10T01:35:03.520Z,986.40
2023-04-10T01:36:03.683Z,986.38
2023-04-10T01:37:03.702Z,986.32
2023-04-10T01:38:03.590Z,986.29
2023-04-10T01:39:03.599Z,986.27
2023-04-10T01:40:03.710Z,986.27
2023-04-10T01:41:03.497Z,986.32
2023-04-10T01:42:03.616Z,986.32
2023-04-10T01:43:03.781Z,986.15
2023-04-10T01:44:03.728Z,986.38
2023-04-10T01:45:03.824Z,986.32
2023-04-10T01:46:03.793Z,986.32
2023-04-10T01:47:03.822Z,986.15
2023-04-10T01:48:03.827Z,986.38
2023-04-10T01:49:03.649Z,986.32
2023-04-10T01:50:03.729Z,986.41
2023-04-10T01:51:03.799Z,986.35
2023-04-10T01:52:02.954Z,986.29
2023-04-10T01:53:03.072Z,986.27
2023-04-10T01:54:05.748Z,986.35
2023-04-10T01:55:03.033Z,986.27
2023-04-10T01:56:03.100Z,986.30
2023-04-10T01:57:03.090Z,986.30
2023-04-10T01:58:03.060Z,986.30
2023-04-10T01:59:03.036Z,986.27
2023-04-10T02:00:03.159Z,986.30
2023-04-10T02:01:03.234Z,986.44
2023-04-10T02:02:03.369Z,986.36
2023-04-10T02:03:03.396Z,986.27
2023-04-10T02:04:03.281Z,986.27
2023-04-10T02:05:03.398Z,986.25
2023-04-10T02:06:03.233Z,986.25
2023-04-10T02:07:03.355Z,986.25
2023-04-10T02:08:03.289Z,986.33
2023-04-10T02:09:03.277Z,986.22
2023-04-10T02:10:03.427Z,986.16
2023-04-10T02:11:03.420Z,986.19
2023-04-10T02:12:03.422Z,986.14
2023-04-10T02:13:03.566Z,986.14
2023-04-10T02:14:03.522Z,986.14
2023-04-10T02:15:03.563Z,986.22
2023-04-10T02:16:04.763Z,986.16
2023-04-10T02:17:03.424Z,986.16
2023-04-10T02:18:03.657Z,986.14
2023-04-10T02:19:03.498Z,986.03
2023-04-10T02:20:03.802Z,986.08
2023-04-10T02:21:03.697Z,986.14
2023-04-10T02:22:03.783Z,986.14
2023-04-10T02:23:04.253Z,986.11
2023-04-10T02:24:03.081Z,986.17
2023-04-10T02:25:03.067Z,985.94
2023-04-10T02:26:03.034Z,986.08
2023-04-10T02:27:03.069Z,986.14
2023-04-10T02:28:03.016Z,986.06
2023-04-10T02:29:03.010Z,986.17
2023-04-10T02:30:03.079Z,986.11
2023-04-10T02:31:03.248Z,985.97
2023-04-10T02:32:03.250Z,986.09
2023-04-10T02:33:03.386Z,986.03
2023-04-10T02:34:03.253Z,986.06
2023-04-10T02:35:03.375Z,985.92
2023-04-10T02:36:03.485Z,986.06
2023-04-10T02:37:03.444Z,986.14
2023-04-10T02:38:03.475Z,986.15
2023-04-10T02:39:03.396Z,986.29
2023-04-10T02:40:03.417Z,986.20
2023-04-10T02:41:03.495Z,986.17
2023-04-10T02:42:03.627Z,986.23
2023-04-10T02:43:03.566Z,986.14
2023-04-10T02:44:03.697Z,986.06
2023-04-10T02:45:03.708Z,986.17
2023-04-10T02:46:03.648Z,986.17
2023-04-10T02:47:03.759Z,986.09
2023-04-10T02:48:03.841Z,986.31
2023-04-10T02:49:03.726Z,986.23
2023-04-10T02:50:03.790Z,986.12
2023-04-10T02:51:03.675Z,986.28
2023-04-10T02:52:03.840Z,986.37
2023-04-10T02:53:03.838Z,986.31
2023-04-10T02:54:03.796Z,986.28
2023-04-10T02:55:03.851Z,986.20
2023-04-10T02:56:02.945Z,986.37
2023-04-10T02:57:02.925Z,986.34
2023-04-10T02:58:03.016Z,986.34
2023-04-10T02:59:02.945Z,986.31
2023-04-10T03:00:03.089Z,986.43
2023-04-10T03:01:03.031Z,986.32
2023-04-10T03:02:03.358Z,986.23
2023-04-10T03:03:03.439Z,986.26
2023-04-10T03:04:03.705Z,986.26
2023-04-10T03:05:03.633Z,986.23
2023-04-10T03:06:04.090Z,986.37
2023-04-10T03:07:03.607Z,986.32
2023-04-10T03:08:03.747Z,986.23
2023-04-10T03:09:03.715Z,986.26
2023-04-10T03:10:03.715Z,986.35
2023-04-10T03:11:03.807Z,986.21
2023-04-10T03:12:03.799Z,986.35
2023-04-10T03:13:03.863Z,986.38
2023-04-10T03:14:03.866Z,986.35
2023-04-10T03:15:03.004Z,986.32
2023-04-10T03:16:03.082Z,986.27
2023-04-10T03:17:03.130Z,986.32
2023-04-10T03:18:03.190Z,986.29
2023-04-10T03:19:03.205Z,986.35
2023-04-10T03:20:03.176Z,986.35
2023-04-10T03:21:03.263Z,986.24
2023-04-10T03:22:03.368Z,986.24
2023-04-10T03:23:03.548Z,986.35
2023-04-10T03:24:03.371Z,986.29
2023-04-10T03:25:03.361Z,986.27
2023-04-10T03:26:03.453Z,986.29
2023-04-10T03:27:03.474Z,986.32
2023-04-10T03:28:03.509Z,986.27
2023-04-10T03:29:03.521Z,986.41
2023-04-10T03:30:03.580Z,986.24
2023-04-10T03:31:03.742Z,986.27
2023-04-10T03:32:03.692Z,986.18
2023-04-10T03:33:03.720Z,986.18
2023-04-10T03:34:03.723Z,986.18
2023-04-10T03:35:03.736Z,986.21
2023-04-10T03:36:03.784Z,986.32
2023-04-10T03:37:03.718Z,986.32
2023-04-10T03:38:03.644Z,986.27
2023-04-10T03:39:03.834Z,986.21
2023-04-10T03:40:03.704Z,986.30
2023-04-10T03:41:03.802Z,986.21
2023-04-10T03:42:03.733Z,986.21
2023-04-10T03:43:03.823Z,986.30
2023-04-10T03:44:03.832Z,986.24
2023-04-10T03:45:03.827Z,986.30
2023-04-10T03:46:03.841Z,986.27
2023-04-10T03:47:03.882Z,986.16
2023-04-10T03:48:03.900Z,986.19
2023-04-10T03:49:03.890Z,986.24
2023-04-10T03:50:03.781Z,986.27
2023-04-10T03:51:02.965Z,986.19
2023-04-10T03:52:02.976Z,986.13
2023-04-10T03:53:03.031Z,986.16
2023-04-10T03:54:03.917Z,986.24
2023-04-10T03:55:03.006Z,986.36
2023-04-10T03:56:03.010Z,986.27
2023-04-10T03:57:02.963Z,986.24
2023-04-10T03:58:03.931Z,986.27
2023-04-10T03:59:03.983Z,986.22
2023-04-10T04:00:03.103Z,986.30
2023-04-10T04:01:03.128Z,986.38
2023-04-10T04:02:03.206Z,986.38
2023-04-10T04:03:03.495Z,986.33
2023-04-10T04:04:03.488Z,986.30
2023-04-10T04:05:03.226Z,986.41
2023-04-10T04:06:03.033Z,986.36
2023-04-10T04:07:03.050Z,986.44
2023-04-10T04:08:03.144Z,986.41
2023-04-10T04:09:03.195Z,986.41
2023-04-10T04:10:03.088Z,986.36
2023-04-10T04:11:03.189Z,986.36
2023-04-10T04:12:03.300Z,986.44
2023-04-10T04:13:03.499Z,986.39
2023-04-10T04:14:03.331Z,986.47
2023-04-10T04:15:03.553Z,986.39
2023-04-10T04:16:03.408Z,986.42
2023-04-10T04:17:03.587Z,986.36
2023-04-10T04:18:03.385Z,986.47
2023-04-10T04:19:03.287Z,986.31
2023-04-10T04:20:03.252Z,986.42
2023-04-10T04:21:03.202Z,986.36
2023-04-10T04:22:03.180Z,986.28
2023-04-10T04:23:03.268Z,986.25
2023-04-10T04:24:03.275Z,986.31
2023-04-10T04:25:03.551Z,986.45
2023-04-10T04:26:03.820Z,986.28
2023-04-10T04:27:03.731Z,986.28
2023-04-10T04:28:03.918Z,986.20
2023-04-10T04:29:03.864Z,986.37
2023-04-10T04:30:03.817Z,986.28
2023-04-10T04:31:03.900Z,986.28
2023-04-10T04:32:03.010Z,986.25
2023-04-10T04:33:03.079Z,986.31
2023-04-10T04:34:03.017Z,986.20
2023-04-10T04:35:02.935Z,986.37
2023-04-10T04:36:04.086Z,986.34
2023-04-10T04:37:03.940Z,986.37
2023-04-10T04:38:03.880Z,986.31
2023-04-10T04:39:02.992Z,986.22
2023-04-10T04:40:03.082Z,986.14
2023-04-10T04:41:03.076Z,986.31
2023-04-10T04:42:03.146Z,986.25
2023-04-10T04:43:03.159Z,986.25
2023-04-10T04:44:03.184Z,986.20
2023-04-10T04:45:03.317Z,986.22
2023-04-10T04:46:03.499Z,986.11
2023-04-10T04:47:03.224Z,986.28
2023-04-10T04:48:03.330Z,986.25
2023-04-10T04:49:03.232Z,986.28
2023-04-10T04:50:03.183Z,986.14
2023-04-10T04:51:03.237Z,986.25
2023-04-10T04:52:03.205Z,986.34
2023-04-10T04:53:03.329Z,986.09
2023-04-10T04:54:03.325Z,986.23
2023-04-10T04:55:03.325Z,986.17
2023-04-10T04:56:03.241Z,986.28
2023-04-10T04:57:03.373Z,986.23
2023-04-10T04:58:03.434Z,986.31
2023-04-10T04:59:03.521Z,986.25
2023-04-10T05:00:03.498Z,986.28
2023-04-10T05:01:03.665Z,986.11
2023-04-10T05:02:04.072Z,986.20
2023-04-10T05:03:04.325Z,986.17
2023-04-10T05:04:03.967Z,986.17
2023-04-10T05:05:04.956Z,986.19
2023-04-10T05:06:03.779Z,986.14
2023-04-10T05:07:03.805Z,986.02
2023-04-10T05:08:03.821Z,986.11
2023-04-10T05:09:03.819Z,985.99
2023-04-10T05:10:03.683Z,986.08
2023-04-10T05:11:03.785Z,986.10
2023-04-10T05:12:03.704Z,986.05
2023-04-10T05:13:03.763Z,986.04
2023-04-10T05:14:03.705Z,986.04
2023-04-10T05:15:03.665Z,985.96
2023-04-10T05:16:03.698Z,985.87
2023-04-10T05:17:04.252Z,986.01
2023-04-10T05:18:03.890Z,985.98
2023-04-10T05:19:03.685Z,985.97
2023-04-10T05:20:03.731Z,986.08
2023-04-10T05:21:03.653Z,985.80
2023-04-10T05:22:03.737Z,985.88
2023-04-10T05:23:03.756Z,985.90
2023-04-10T05:24:03.867Z,985.90
2023-04-10T05:25:03.876Z,985.84
2023-04-10T05:26:03.940Z,985.89
2023-04-10T05:27:02.990Z,985.80
2023-04-10T05:28:03.897Z,985.74
2023-04-10T05:29:03.892Z,985.82
2023-04-10T05:30:02.914Z,985.75
2023-04-10T05:31:03.082Z,985.75
2023-04-10T05:32:02.975Z,985.72
2023-04-10T05:33:03.248Z,985.82
2023-04-10T05:34:03.236Z,985.82
2023-04-10T05:35:03.302Z,985.78
2023-04-10T05:36:03.357Z,985.86
2023-04-10T05:37:03.306Z,985.72
2023-04-10T05:38:03.259Z,985.80
2023-04-10T05:39:03.333Z,985.79
2023-04-10T05:40:03.332Z,985.82
2023-04-10T05:41:03.371Z,985.75
2023-04-10T05:42:03.271Z,985.95
2023-04-10T05:43:03.427Z,985.83
2023-04-10T05:44:03.450Z,985.97
2023-04-10T05:45:03.372Z,986.05
2023-04-10T05:46:03.435Z,985.99
2023-04-10T05:47:03.351Z,986.07
2023-04-10T05:48:03.353Z,986.15
2023-04-10T05:49:03.385Z,986.03
2023-04-10T05:50:03.301Z,986.11
2023-04-10T05:51:03.330Z,986.11
2023-04-10T05:52:03.469Z,986.19
2023-04-10T05:53:03.502Z,986.13
2023-04-10T05:54:03.359Z,986.24
2023-04-10T05:55:03.643Z,986.26
2023-04-10T05:56:03.462Z,986.29
2023-04-10T05:57:03.576Z,986.28
2023-04-10T05:58:03.572Z,986.34
2023-04-10T05:59:03.569Z,986.48
2023-04-10T06:00:03.562Z,986.36
2023-04-10T06:01:03.622Z,986.47
2023-04-10T06:02:03.742Z,986.52
2023-04-10T06:03:03.903Z,986.57
2023-04-10T06:04:03.945Z,986.68
2023-04-10T06:05:03.649Z,986.65
2023-04-10T06:06:03.614Z,986.67
2023-04-10T06:07:03.571Z,986.67
2023-04-10T06:08:03.782Z,986.75
2023-04-10T06:09:03.773Z,986.72
2023-04-10T06:10:03.721Z,986.83
2023-04-10T06:11:03.929Z,986.77
2023-04-10T06:12:03.778Z,986.93
2023-04-10T06:13:02.939Z,986.79
2023-04-10T06:14:02.949Z,986.76
2023-04-10T06:15:03.137Z,986.90
2023-04-10T06:16:03.100Z,987.07
2023-04-10T06:17:03.187Z,986.98
2023-04-10T06:18:03.140Z,986.95
2023-04-10T06:19:03.148Z,986.91
2023-04-10T06:20:03.387Z,986.94
2023-04-10T06:21:03.062Z,986.97
2023-04-10T06:22:03.169Z,986.94
2023-04-10T06:23:03.150Z,986.99
2023-04-10T06:24:03.331Z,986.96
2023-04-10T06:25:03.274Z,987.05
2023-04-10T06:26:03.279Z,987.13
2023-04-10T06:27:03.244Z,987.07
2023-04-10T06:28:03.149Z,987.07
2023-04-10T06:29:03.177Z,987.35
2023-04-10T06:30:03.244Z,987.18
2023-04-10T06:31:03.343Z,987.24
2023-04-10T06:32:03.414Z,987.29
2023-04-10T06:33:03.490Z,987.26
2023-04-10T06:34:03.677Z,987.23
2023-04-10T06:35:03.682Z,987.15
2023-04-10T06:36:03.752Z,987.15
2023-04-10T06:37:03.759Z,987.29
2023-04-10T06:38:03.705Z,987.29
2023-04-10T06:39:03.715Z,987.34
2023-04-10T06:40:03.781Z,987.43
2023-04-10T06:41:03.710Z,987.31
2023-04-10T06:42:03.816Z,987.39
2023-04-10T06:43:03.819Z,987.31
2023-04-10T06:44:04.154Z,987.31
2023-04-10T06:45:03.792Z,987.36
2023-04-10T06:46:03.793Z,987.39
2023-04-10T06:47:04.327Z,987.36
2023-04-10T06:48:03.932Z,987.44
2023-04-10T06:49:03.884Z,987.47
2023-04-10T06:50:03.781Z,987.38
2023-04-10T06:51:03.887Z,987.30
2023-04-10T06:52:03.775Z,987.50
2023-04-10T06:53:03.912Z,987.49
2023-04-10T06:54:03.881Z,987.35
2023-04-10T06:55:03.826Z,987.41
2023-04-10T06:56:04.297Z,987.38
2023-04-10T06:57:03.115Z,987.49
2023-04-10T06:58:03.066Z,987.43
2023-04-10T06:59:03.258Z,987.37
2023-04-10T07:00:03.203Z,987.43
2023-04-10T07:01:03.127Z,987.51
2023-04-10T07:02:03.476Z,987.40
2023-04-10T07:03:03.512Z,987.54
2023-04-10T07:04:03.429Z,987.54
2023-04-10T07:05:03.089Z,987.48
2023-04-10T07:06:03.328Z,987.43
2023-04-10T07:07:03.171Z,987.48
2023-04-10T07:08:03.184Z,987.54
2023-04-10T07:09:03.241Z,987.57
2023-04-10T07:10:03.252Z,987.57
2023-04-10T07:11:03.246Z,987.59
2023-04-10T07:12:03.353Z,987.62
2023-04-10T07:13:03.376Z,987.62
2023-04-10T07:14:03.694Z,987.68
2023-04-10T07:15:03.262Z,987.71
2023-04-10T07:16:03.380Z,987.56
2023-04-10T07:17:03.477Z,987.65
2023-04-10T07:18:03.776Z,987.59
2023-04-10T07:19:03.696Z,987.62
2023-04-10T07:20:03.473Z,987.70
2023-04-10T07:21:03.642Z,987.59
2023-04-10T07:22:03.638Z,987.68
2023-04-10T07:23:03.664Z,987.53
2023-04-10T07:24:03.731Z,987.59
2023-04-10T07:25:03.777Z,987.62
2023-04-10T07:26:03.896Z,987.67
2023-04-10T07:27:03.870Z,987.70
2023-04-10T07:28:03.994Z,987.70
2023-04-10T07:29:03.972Z,987.59
2023-04-10T07:30:03.870Z,987.59
2023-04-10T07:31:02.933Z,987.62
2023-04-10T07:32:03.240Z,987.67
2023-04-10T07:33:03.666Z,987.59
2023-04-10T07:34:03.277Z,987.73
2023-04-10T07:35:03.293Z,987.58
2023-04-10T07:36:03.520Z,987.58
2023-04-10T07:37:03.483Z,987.61
2023-04-10T07:38:03.443Z,987.64
2023-04-10T07:39:03.447Z,987.61
2023-04-10T07:40:03.576Z,987.61
2023-04-10T07:41:03.599Z,987.46
2023-04-10T07:42:03.578Z,987.55
2023-04-10T07:43:03.435Z,987.58
2023-04-10T07:44:03.617Z,987.46
2023-04-10T07:45:03.635Z,987.43
2023-04-10T07:46:03.727Z,987.35
2023-04-10T07:47:03.652Z,987.41
2023-04-10T07:48:03.680Z,987.43
2023-04-10T07:49:03.575Z,987.38
2023-04-10T07:50:03.744Z,987.46
2023-04-10T07:51:03.681Z,987.46
2023-04-10T07:52:03.848Z,987.40
2023-04-10T07:53:02.944Z,987.40
2023-04-10T07:54:03.032Z,987.58
2023-04-10T07:55:03.182Z,987.37
2023-04-10T07:56:03.162Z,987.32
2023-04-10T07:57:03.312Z,987.34
2023-04-10T07:58:03.269Z,987.37
2023-04-10T07:59:03.284Z,987.46
2023-04-10T08:00:03.361Z,987.37
2023-04-10T08:01:03.382Z,987.28
2023-04-10T08:02:03.541Z,987.25
2023-04-10T08:03:03.987Z,987.42
2023-04-10T08:04:06.492Z,987.34
2023-04-10T08:05:03.957Z,987.25
2023-04-10T08:06:03.262Z,987.45
2023-04-10T08:07:03.234Z,987.33
2023-04-10T08:08:03.435Z,987.31
2023-04-10T08:09:03.461Z,987.45
2023-04-10T08:10:03.393Z,987.42
2023-04-10T08:11:03.335Z,987.54
2023-04-10T08:12:03.447Z,987.48
2023-04-10T08:13:03.549Z,987.57
2023-04-10T08:14:03.610Z,987.65
2023-04-10T08:15:03.637Z,987.71
2023-04-10T08:16:03.682Z,987.57
2023-04-10T08:17:03.874Z,987.68
2023-04-10T08:18:03.792Z,987.57
2023-04-10T08:19:03.883Z,987.71
2023-04-10T08:20:03.808Z,987.65
2023-04-10T08:21:03.846Z,987.77
2023-04-10T08:22:03.883Z,987.91
2023-04-10T08:23:20.652Z,987.80
2023-04-10T08:24:03.172Z,987.69
2023-04-10T08:25:03.193Z,987.72
2023-04-10T08:26:03.164Z,987.83
2023-04-10T08:27:03.310Z,987.69
2023-04-10T08:28:03.403Z,987.72
2023-04-10T08:29:03.252Z,987.61
2023-04-10T08:30:03.312Z,987.72
2023-04-10T08:31:03.365Z,987.75
2023-04-10T08:32:03.280Z,987.75
2023-04-10T08:33:03.346Z,987.67
2023-04-10T08:34:03.241Z,987.67
2023-04-10T08:35:03.440Z,987.70
2023-04-10T08:36:03.384Z,987.72
2023-04-10T08:37:03.432Z,987.58
2023-04-10T08:38:14.843Z,987.72
2023-04-10T08:39:03.501Z,987.67
2023-04-10T08:40:03.473Z,987.69
2023-04-10T08:41:03.551Z,987.69
2023-04-10T08:42:03.446Z,987.69
2023-04-10T08:43:03.668Z,987.49
2023-04-10T08:44:03.605Z,987.69
2023-04-10T08:45:03.767Z,987.66
2023-04-10T08:46:03.917Z,987.46
2023-04-10T08:47:03.769Z,987.61
2023-04-10T08:48:04.075Z,987.61
2023-04-10T08:49:03.038Z,987.69
2023-04-10T08:50:03.116Z,987.60
2023-04-10T08:51:03.199Z,987.60
2023-04-10T08:52:03.177Z,987.63
2023-04-10T08:53:03.298Z,987.43
2023-04-10T08:54:03.604Z,987.51
2023-04-10T08:55:03.724Z,987.60
2023-04-10T08:56:03.851Z,987.54
2023-04-10T08:57:03.877Z,987.57
2023-04-10T08:58:03.854Z,987.51
2023-04-10T08:59:04.005Z,987.48
2023-04-10T09:00:23.275Z,987.39
2023-04-10T09:01:03.086Z,987.45
2023-04-10T09:02:03.483Z,987.51
2023-04-10T09:03:03.478Z,987.45
2023-04-10T09:04:03.448Z,987.59
2023-04-10T09:05:03.160Z,987.28
2023-04-10T09:06:03.200Z,987.36
2023-04-10T09:07:03.301Z,987.42
2023-04-10T09:08:03.423Z,987.42
2023-04-10T09:09:03.470Z,987.48
2023-04-10T09:10:02.951Z,987.45
2023-04-10T09:11:03.105Z,987.42
2023-04-10T09:12:03.068Z,987.42
2023-04-10T09:13:03.029Z,987.51
2023-04-10T09:14:03.177Z,987.57
2023-04-10T09:15:03.039Z,987.46
2023-04-10T09:16:03.706Z,987.51
2023-04-10T09:17:03.635Z,987.46
2023-04-10T09:18:04.056Z,987.43
2023-04-10T09:19:05.742Z,987.43
2023-04-10T09:20:03.040Z,987.34
2023-04-10T09:21:03.144Z,987.31
2023-04-10T09:22:03.242Z,987.43
2023-04-10T09:23:03.209Z,987.34
2023-04-10T09:24:03.193Z,987.46
2023-04-10T09:25:03.431Z,987.45
2023-04-10T09:26:03.337Z,987.34
2023-04-10T09:27:03.545Z,987.31
2023-04-10T09:28:03.573Z,987.37
2023-04-10T09:29:03.596Z,987.28
2023-04-10T09:30:03.667Z,987.31
2023-04-10T09:31:03.805Z,987.34
2023-04-10T09:32:03.738Z,987.34
2023-04-10T09:33:04.521Z,987.43
2023-04-10T09:34:03.839Z,987.34
2023-04-10T09:35:03.862Z,987.17
2023-04-10T09:36:02.998Z,987.22
2023-04-10T09:37:03.008Z,987.19
2023-04-10T09:38:03.048Z,987.22
2023-04-10T09:39:03.181Z,987.11
2023-04-10T09:40:03.257Z,987.22
2023-04-10T09:41:03.215Z,987.14
2023-04-10T09:42:03.206Z,987.16
2023-04-10T09:43:03.078Z,987.22
2023-04-10T09:44:03.142Z,987.22
2023-04-10T09:45:03.364Z,987.19
2023-04-10T09:46:03.647Z,986.99
2023-04-10T09:47:03.640Z,986.99
2023-04-10T09:48:04.034Z,986.99
2023-04-10T09:49:03.675Z,987.05
2023-04-10T09:50:04.033Z,987.05
2023-04-10T09:51:03.866Z,987.02
2023-04-10T09:52:02.968Z,986.91
2023-04-10T09:53:03.104Z,986.96
2023-04-10T09:54:03.012Z,986.99
2023-04-10T09:55:03.096Z,986.88
2023-04-10T09:56:03.130Z,986.82
2023-04-10T09:57:03.111Z,987.05
2023-04-10T09:58:03.113Z,986.93
2023-04-10T09:59:03.223Z,986.96
2023-04-10T10:00:03.256Z,986.93
2023-04-10T10:01:03.298Z,986.76
2023-04-10T10:02:03.428Z,986.82
2023-04-10T10:03:03.550Z,986.90
2023-04-10T10:04:03.127Z,986.82
2023-04-10T10:05:03.422Z,986.79
2023-04-10T10:06:03.370Z,986.73
2023-04-10T10:07:03.267Z,986.61
2023-04-10T10:08:03.231Z,986.59
2023-04-10T10:09:03.270Z,986.79
2023-04-10T10:10:03.427Z,986.65
2023-04-10T10:11:03.468Z,986.65
2023-04-10T10:12:03.445Z,986.54
2023-04-10T10:13:03.449Z,986.48
2023-04-10T10:14:03.620Z,986.48
2023-04-10T10:15:03.605Z,986.54
2023-04-10T10:16:03.821Z,986.67
2023-04-10T10:17:03.497Z,986.65
2023-04-10T10:18:03.721Z,986.54
2023-04-10T10:19:03.589Z,986.54
2023-04-10T10:20:03.740Z,986.37
2023-04-10T10:21:03.780Z,986.42
2023-04-10T10:22:03.776Z,986.42
2023-04-10T10:23:03.824Z,986.51
2023-04-10T10:24:03.903Z,986.45
2023-04-10T10:25:02.971Z,986.33
2023-04-10T10:26:04.303Z,986.45
2023-04-10T10:27:03.160Z,986.36
2023-04-10T10:28:03.150Z,986.27
2023-04-10T10:29:03.125Z,986.21
2023-04-10T10:30:25.601Z,986.39
2023-04-10T10:31:03.378Z,986.27
2023-04-10T10:32:03.352Z,986.27
2023-04-10T10:33:03.438Z,986.27
2023-04-10T10:34:03.347Z,986.21
2023-04-10T10:35:03.332Z,986.24
2023-04-10T10:36:03.395Z,986.18
2023-04-10T10:37:03.357Z,986.23
2023-04-10T10:38:03.347Z,986.21
2023-04-10T10:39:03.469Z,986.21
2023-04-10T10:40:03.655Z,986.09
2023-04-10T10:41:03.592Z,986.12
2023-04-10T10:42:03.656Z,986.17
2023-04-10T10:43:03.648Z,986.12
2023-04-10T10:44:03.744Z,986.09
2023-04-10T10:45:03.647Z,986.06
2023-04-10T10:46:03.998Z,986.03
2023-04-10T10:47:03.680Z,986.03
2023-04-10T10:48:04.071Z,985.94
2023-04-10T10:49:03.742Z,986.06
2023-04-10T10:50:03.884Z,986.23
2023-04-10T10:51:03.307Z,986.23
2023-04-10T10:52:03.584Z,986.06
2023-04-10T10:53:03.242Z,986.09
2023-04-10T10:54:03.196Z,985.94
2023-04-10T10:55:03.101Z,985.94
2023-04-10T10:56:03.266Z,985.88
2023-04-10T10:57:03.306Z,986.00
2023-04-10T10:58:03.421Z,986.00
2023-04-10T10:59:03.438Z,986.14
2023-04-10T11:00:03.621Z,986.12
2023-04-10T11:01:03.689Z,986.00
2023-04-10T11:02:03.834Z,986.00
2023-04-10T11:03:04.074Z,986.11
2023-04-10T11:04:03.510Z,985.94
2023-04-10T11:05:03.062Z,986.00
2023-04-10T11:06:03.060Z,986.05
2023-04-10T11:07:03.033Z,986.00
2023-04-10T11:08:03.443Z,985.94
2023-04-10T11:09:03.342Z,985.85
2023-04-10T11:10:03.331Z,986.00
2023-04-10T11:11:03.463Z,986.00
2023-04-10T11:12:03.762Z,986.02
2023-04-10T11:13:03.803Z,985.91
2023-04-10T11:14:03.802Z,985.90
2023-04-10T11:15:03.968Z,985.85
2023-04-10T11:16:03.115Z,985.93
2023-04-10T11:17:03.455Z,985.87
2023-04-10T11:18:03.446Z,985.90
2023-04-10T11:19:15.254Z,985.99
2023-04-10T11:20:03.280Z,985.99
2023-04-10T11:21:03.432Z,985.90
2023-04-10T11:22:03.474Z,986.02
2023-04-10T11:23:03.544Z,985.96
2023-04-10T11:24:03.731Z,985.98
2023-04-10T11:25:03.790Z,985.87
2023-04-10T11:26:03.795Z,985.84
2023-04-10T11:27:03.857Z,985.98
2023-04-10T11:28:03.809Z,985.81
2023-04-10T11:29:03.936Z,985.92
2023-04-10T11:30:03.875Z,985.92
2023-04-10T11:31:03.047Z,986.01
2023-04-10T11:32:03.281Z,985.83
2023-04-10T11:33:03.427Z,985.78
2023-04-10T11:34:03.184Z,985.75
2023-04-10T11:35:05.362Z,985.95
2023-04-10T11:36:03.479Z,985.92
2023-04-10T11:37:03.332Z,985.80
2023-04-10T11:38:03.404Z,985.95
2023-04-10T11:39:03.433Z,985.86
2023-04-10T11:40:02.984Z,985.81
2023-04-10T11:41:03.246Z,985.86
2023-04-10T11:42:03.077Z,985.95
2023-04-10T11:43:03.094Z,986.09
2023-04-10T11:44:03.142Z,986.04
2023-04-10T11:45:03.018Z,986.04
2023-04-10T11:46:03.426Z,986.07
2023-04-10T11:47:03.185Z,986.01
2023-04-10T11:48:03.326Z,985.95
2023-04-10T11:49:03.220Z,985.84
2023-04-10T11:50:03.185Z,985.72
2023-04-10T11:51:03.253Z,985.90
2023-04-10T11:52:03.227Z,985.81
2023-04-10T11:53:03.172Z,985.84
2023-04-10T11:54:03.196Z,985.78
2023-04-10T11:55:03.095Z,985.89
2023-04-10T11:56:03.136Z,985.84
2023-04-10T11:57:03.163Z,985.78
2023-04-10T11:58:03.169Z,985.75
2023-04-10T11:59:03.217Z,985.72
2023-04-10T12:00:03.324Z,985.75
2023-04-10T12:01:03.447Z,985.89
2023-04-10T12:02:03.655Z,985.98
2023-04-10T12:03:03.667Z,985.89
2023-04-10T12:04:03.979Z,985.95
2023-04-10T12:05:03.778Z,985.95
2023-04-10T12:06:03.719Z,985.98
2023-04-10T12:07:03.770Z,985.95
2023-04-10T12:08:03.819Z,986.07
2023-04-10T12:09:03.882Z,985.95
2023-04-10T12:10:03.154Z,985.90
2023-04-10T12:11:03.064Z,985.87
2023-04-10T12:12:03.104Z,985.87
2023-04-10T12:13:03.253Z,985.81
2023-04-10T12:14:03.239Z,985.90
2023-04-10T12:15:03.201Z,986.07
2023-04-10T12:16:03.308Z,985.98
2023-04-10T12:17:03.344Z,986.01
2023-04-10T12:18:03.426Z,985.95
2023-04-10T12:19:03.391Z,985.75
2023-04-10T12:20:03.382Z,985.84
2023-04-10T12:21:03.337Z,985.84
2023-04-10T12:22:03.472Z,985.75
2023-04-10T12:23:03.512Z,985.60
2023-04-10T12:24:03.510Z,985.69
2023-04-10T12:25:03.539Z,985.77
2023-04-10T12:26:03.418Z,985.63
2023-04-10T12:27:03.398Z,985.75
2023-04-10T12:28:03.488Z,985.72